| time (UTC) | temp F | wind direction | speed MPH | gust MPH | rain 1hr in | rain 24hr in | rain mn in | humidity % | barometer mb |
| 20260902094545 | 66 | 243 | 5.0 | 12.0 | 0.00 | 0.23 | 0.00 | 74 | 1019.4 |
| 20260902093049 | 65 | 0 | 5.0 | 13.0 | 0.00 | 0.23 | 0.00 | 78 | 1019.4 |
| 20260902091550 | 64 | 233 | 5.0 | 11.0 | 0.00 | 0.23 | 0.00 | 81 | 1019.5 |
| 20260902090045 | 63 | 355 | 3.0 | 15.0 | 0.00 | 0.23 | 0.00 | 82 | 1019.5 |
| 20260902084550 | 62 | 355 | 3.0 | 11.0 | 0.00 | 0.24 | 0.00 | 84 | 1019.6 |
| 20260902083046 | 61 | 355 | 2.0 | 9.0 | 0.00 | 0.24 | 0.00 | 86 | 1019.5 |
| 20260902081551 | 60 | 0 | 3.0 | 8.0 | 0.00 | 0.24 | 0.00 | 87 | 1019.5 |
| 20260902080042 | 60 | 0 | 0.0 | 5.0 | 0.00 | 0.24 | 0.00 | 89 | 1019.6 |
| 20260902074606 | 59 | 355 | 1.0 | 8.0 | 0.00 | 0.24 | 0.00 | 90 | 1019.4 |
| 20260902073043 | 58 | 355 | 2.0 | 5.0 | 0.00 | 0.24 | 0.00 | 91 | 1019.4 |
| 20260902071543 | 58 | 0 | 3.0 | 8.0 | 0.00 | 0.24 | 0.00 | 92 | 1019.5 |
| 20260902070041 | 57 | 0 | 0.0 | 4.0 | 0.00 | 0.24 | 0.00 | 94 | 1019.4 |
| 20260902064621 | 56 | 0 | 0.0 | 3.0 | 0.00 | 0.24 | 0.00 | 95 | 1019.4 |
| 20260902063101 | 55 | 355 | 0.0 | 4.0 | 0.00 | 0.24 | 0.00 | 96 | 1019.4 |
| 20260902061542 | 55 | 355 | 0.0 | 1.0 | 0.00 | 0.24 | 0.00 | 96 | 1019.4 |
| 20260902060105 | 0 | 0.0 | 0.0 | 0.00 | 0.24 | 0.00 | 1019.3 | ||
| 20260902054603 | 54 | 0 | 0.0 | 1.0 | 0.00 | 0.24 | 0.00 | 97 | 1019.4 |
| 20260902053043 | 54 | 0 | 0.0 | 4.0 | 0.00 | 0.24 | 0.00 | 96 | 1019.4 |
| 20260902051552 | 53 | 0 | 0.0 | 3.0 | 0.00 | 0.24 | 0.00 | 96 | 1019.3 |
| 20260902050046 | 53 | 0 | 0.0 | 3.0 | 0.00 | 0.24 | 0.00 | 96 | 1019.4 |
| 20260902044544 | 53 | 0 | 0.0 | 0.0 | 0.00 | 0.24 | 0.00 | 96 | 1019.3 |
| 20260902043103 | 53 | 0 | 0.0 | 0.0 | 0.00 | 0.24 | 0.00 | 96 | 1019.2 |
| 20260902041603 | 53 | 0 | 0.0 | 4.0 | 0.00 | 0.24 | 0.00 | 96 | 1019.3 |
| 20260902040046 | 53 | 0 | 0.0 | 5.0 | 0.00 | 0.24 | 0.00 | 96 | 1019.3 |
| 20260902034550 | 53 | 0 | 0.0 | 4.0 | 0.00 | 0.25 | 0.00 | 96 | 1019.2 |
| 20260902033041 | 53 | 0 | 0.0 | 3.0 | 0.00 | 0.25 | 0.00 | 96 | 1019.3 |
| 20260902031549 | 53 | 0 | 0.0 | 1.0 | 0.00 | 0.25 | 0.00 | 96 | 1019.4 |
| 20260902030046 | 53 | 0 | 0.0 | 4.0 | 0.00 | 0.25 | 0.00 | 96 | 1019.4 |
| 20260902024542 | 53 | 0 | 0.0 | 2.0 | 0.00 | 0.25 | 0.00 | 96 | 1019.5 |
| 20260902023052 | 53 | 0 | 0.0 | 4.0 | 0.00 | 0.25 | 0.00 | 96 | 1019.5 |
| 20260902021547 | 53 | 0 | 0.0 | 0.0 | 0.00 | 0.25 | 0.00 | 96 | 1019.6 |
| 20260902020049 | 53 | 0 | 0.0 | 0.0 | 0.00 | 0.25 | 0.00 | 95 | 1019.6 |
| 20260902014549 | 53 | 0 | 0.0 | 0.0 | 0.00 | 0.29 | 0.00 | 95 | 1019.6 |
| 20260902013053 | 54 | 0 | 0.0 | 0.0 | 0.00 | 0.29 | 0.00 | 95 | 1019.5 |
| 20260902011544 | 54 | 0 | 0.0 | 0.0 | 0.00 | 0.29 | 0.00 | 95 | 1019.4 |
| 20260902010050 | 54 | 0 | 0.0 | 5.0 | 0.00 | 0.29 | 0.00 | 95 | 1019.4 |
| 20260902004555 | 54 | 0 | 0.0 | 3.0 | 0.00 | 0.30 | 0.00 | 95 | 1019.3 |
| 20260902003134 | 54 | 0 | 0.0 | 1.0 | 0.00 | 0.30 | 0.00 | 94 | 1019.5 |
| 20260902001548 | 54 | 0 | 0.0 | 0.0 | 0.00 | 0.30 | 0.00 | 94 | 1019.3 |
| 20260902000048 | 54 | 0 | 0.0 | 0.0 | 0.00 | 0.30 | 0.00 | 93 | 1019.4 |
| 20260901234545 | 55 | 0 | 0.0 | 0.0 | 0.00 | 0.31 | 0.00 | 92 | 1019.6 |
| 20260901233043 | 55 | 0 | 0.0 | 0.0 | 0.00 | 0.31 | 0.00 | 92 | 1019.7 |
| 20260901231558 | 56 | 0 | 0.0 | 0.0 | 0.00 | 0.31 | 0.00 | 91 | 1019.7 |
| 20260901230048 | 57 | 0 | 0.0 | 0.0 | 0.00 | 0.31 | 0.00 | 91 | 1019.7 |
| 20260901224548 | 57 | 0 | 0.0 | 4.0 | 0.00 | 0.31 | 0.00 | 91 | 1019.7 |
| 20260901223048 | 57 | 0 | 0.0 | 4.0 | 0.00 | 0.31 | 0.00 | 91 | 1019.8 |
| 20260901221546 | 57 | 0 | 0.0 | 5.0 | 0.00 | 0.31 | 0.00 | 91 | 1019.8 |
| 20260901220047 | 57 | 0 | 0.0 | 4.0 | 0.00 | 0.31 | 0.00 | 91 | 1019.7 |
| 20260901214547 | 58 | 0 | 1.0 | 5.0 | 0.00 | 0.31 | 0.31 | 91 | 1019.6 |
| 20260901213048 | 58 | 0 | 0.0 | 3.0 | 0.00 | 0.31 | 0.31 | 91 | 1019.7 |
| 20260901211544 | 58 | 0 | 0.0 | 0.0 | 0.00 | 0.31 | 0.31 | 91 | 1019.7 |
| 20260901210108 | 58 | 0 | 0.0 | 3.0 | 0.00 | 0.31 | 0.31 | 91 | 1019.5 |
| 20260901204547 | 59 | 0 | 0.0 | 0.0 | 0.00 | 0.31 | 0.31 | 91 | 1019.6 |
| 20260901203044 | 59 | 0 | 0.0 | 6.0 | 0.00 | 0.31 | 0.31 | 91 | 1019.6 |
| 20260901201540 | 60 | 0 | 0.0 | 4.0 | 0.00 | 0.31 | 0.31 | 91 | 1019.6 |
| 20260901200047 | 60 | 0 | 0.0 | 3.0 | 0.00 | 0.31 | 0.31 | 91 | 1019.6 |
| 20260901194545 | 61 | 0 | 0.0 | 12.0 | 0.00 | 0.35 | 0.31 | 88 | 1019.6 |
| 20260901193105 | 62 | 355 | 4.0 | 13.0 | 0.00 | 0.35 | 0.31 | 84 | 1019.5 |
| 20260901191550 | 62 | 0 | 1.0 | 15.0 | 0.00 | 0.35 | 0.31 | 84 | 1019.3 |
| 20260901190105 | 62 | 0 | 4.0 | 9.0 | 0.00 | 0.35 | 0.31 | 85 | 1019.2 |
| 20260901184548 | 61 | 0 | 2.0 | 8.0 | 0.00 | 0.35 | 0.31 | 85 | 1019.1 |
| 20260901183047 | 61 | 0 | 0.0 | 9.0 | 0.00 | 0.35 | 0.31 | 84 | 1018.9 |
| 20260901181544 | 62 | 355 | 1.0 | 9.0 | 0.00 | 0.35 | 0.31 | 83 | 1018.7 |
| 20260901180043 | 62 | 355 | 1.0 | 9.0 | 0.00 | 0.35 | 0.31 | 81 | 1018.6 |
| 20260901174554 | 63 | 355 | 3.0 | 13.0 | 0.00 | 0.35 | 0.31 | 80 | 1018.5 |
| 20260901173044 | 63 | 355 | 6.0 | 14.0 | 0.00 | 0.35 | 0.31 | 77 | 1018.6 |
| 20260901171550 | 64 | 274 | 2.0 | 15.0 | 0.00 | 0.35 | 0.31 | 78 | 1018.4 |
| 20260901170058 | 64 | 258 | 7.0 | 19.0 | 0.00 | 0.35 | 0.31 | 76 | 1018.3 |
| 20260901164606 | 65 | 278 | 2.0 | 16.0 | 0.00 | 0.35 | 0.31 | 78 | 1018.2 |
| 20260901163104 | 65 | 0 | 2.0 | 11.0 | 0.00 | 0.35 | 0.31 | 78 | 1018.3 |
| 20260901161550 | 65 | 250 | 6.0 | 15.0 | 0.00 | 0.35 | 0.31 | 77 | 1018.3 |
| 20260901160044 | 65 | 287 | 3.0 | 17.0 | 0.00 | 0.35 | 0.31 | 77 | 1018.3 |
| 20260901154554 | 65 | 312 | 5.0 | 15.0 | 0.00 | 0.37 | 0.31 | 78 | 1018.3 |
| 20260901153048 | 65 | 0 | 1.0 | 12.0 | 0.00 | 0.37 | 0.31 | 84 | 1018.1 |
| 20260901151545 | 66 | 264 | 6.0 | 14.0 | 0.00 | 0.37 | 0.31 | 81 | 1018.1 |
| 20260901150044 | 67 | 0 | 4.0 | 13.0 | 0.00 | 0.37 | 0.31 | 82 | 1018.0 |
| 20260901144549 | 65 | 0 | 1.0 | 15.0 | 0.00 | 0.38 | 0.31 | 83 | 1018.0 |
| 20260901143048 | 65 | 0 | 4.0 | 13.0 | 0.00 | 0.38 | 0.31 | 84 | 1017.9 |
| 20260901141546 | 64 | 307 | 2.0 | 12.0 | 0.00 | 0.38 | 0.31 | 89 | 1017.9 |
| 20260901140049 | 63 | 234 | 4.0 | 15.0 | 0.00 | 0.38 | 0.31 | 89 | 1018.0 |
| 20260901134559 | 62 | 0 | 5.0 | 15.0 | 0.00 | 0.38 | 0.31 | 89 | 1018.1 |
| 20260901133100 | 62 | 17 | 6.0 | 17.0 | 0.00 | 0.38 | 0.31 | 92 | 1018.0 |
| 20260901131545 | 62 | 0 | 5.0 | 14.0 | 0.00 | 0.38 | 0.31 | 93 | 1017.9 |
| 20260901130051 | 61 | 0 | 4.0 | 17.0 | 0.01 | 0.38 | 0.31 | 93 | 1017.8 |
| 20260901124549 | 62 | 279 | 4.0 | 13.0 | 0.05 | 0.38 | 0.31 | 94 | 1017.9 |
| 20260901123044 | 62 | 257 | 4.0 | 13.0 | 0.08 | 0.38 | 0.31 | 94 | 1017.8 |
| 20260901121549 | 61 | 355 | 3.0 | 16.0 | 0.15 | 0.38 | 0.31 | 95 | 1017.7 |
| 20260901120048 | 61 | 355 | 6.0 | 12.0 | 0.20 | 0.37 | 0.29 | 94 | 1017.7 |
| 20260901114548 | 62 | 176 | 5.0 | 14.0 | 0.18 | 0.33 | 0.25 | 94 | 1017.7 |
| 20260901113044 | 62 | 355 | 0.0 | 9.0 | 0.14 | 0.29 | 0.22 | 94 | 1017.2 |
| 20260901111553 | 63 | 355 | 1.0 | 14.0 | 0.07 | 0.22 | 0.14 | 91 | 1017.1 |
| 20260901110050 | 65 | 355 | 0.0 | 9.0 | 0.01 | 0.16 | 0.09 | 90 | 1017.0 |
| 20260901104550 | 67 | 288 | 3.0 | 10.0 | 0.00 | 0.14 | 0.07 | 85 | 1016.7 |
| 20260901103044 | 68 | 273 | 5.0 | 15.0 | 0.00 | 0.14 | 0.07 | 82 | 1016.6 |
| 20260901101548 | 66 | 270 | 4.0 | 13.0 | 0.00 | 0.14 | 0.07 | 86 | 1016.7 |
| 20260901100052 | 66 | 255 | 4.0 | 12.0 | 0.00 | 0.14 | 0.07 | 85 | 1016.6 |